createdAt,value
2023-02-24T00:04:03.707Z,0
2023-02-24T00:18:59.033Z,0.01
2023-02-24T00:33:55.289Z,0
2023-02-24T00:48:51.425Z,0
2023-02-24T01:03:47.611Z,0
2023-02-24T01:18:43.834Z,0
2023-02-24T01:33:40.502Z,0
2023-02-24T01:48:37.182Z,0
2023-02-24T02:03:33.392Z,0
2023-02-24T02:18:30.059Z,0
2023-02-24T02:33:25.795Z,0
2023-02-24T02:48:22.512Z,0
2023-02-24T03:03:18.682Z,0
2023-02-24T03:18:15.020Z,0
2023-02-24T03:33:11.199Z,0.02
2023-02-24T03:48:06.830Z,0
2023-02-24T04:03:02.715Z,0
2023-02-24T04:17:58.999Z,0.01
2023-02-24T04:32:54.912Z,0
2023-02-24T04:47:50.814Z,0
2023-02-24T05:02:46.703Z,0
2023-02-24T05:17:42.824Z,0
2023-02-24T05:32:39.018Z,0
2023-02-24T05:47:35.216Z,0
2023-02-24T06:17:27.784Z,0.02
2023-02-24T06:32:24.423Z,0.01
2023-02-24T06:47:20.515Z,0.02
2023-02-24T07:02:16.729Z,0.03
2023-02-24T07:17:12.474Z,0.06
2023-02-24T07:32:09.496Z,0.08
2023-02-24T07:47:05.658Z,0.08
2023-02-24T08:02:02.450Z,0.1
2023-02-24T08:16:58.818Z,0.1
2023-02-24T08:31:55.172Z,0.1
2023-02-24T08:46:52.130Z,0.11
2023-02-24T09:01:53.332Z,0.11
2023-02-24T09:16:44.243Z,0.1
2023-02-24T09:31:40.745Z,0.1
2023-02-24T09:46:36.806Z,0.1
2023-02-24T10:01:33.697Z,0.16
2023-02-24T10:16:30.069Z,0.1
2023-02-24T10:31:27.134Z,0.13
2023-02-24T10:46:31.803Z,0.16
2023-02-24T11:01:19.622Z,0.14
2023-02-24T11:16:15.852Z,0.21
2023-02-24T11:31:12.393Z,0.21
2023-02-24T11:46:08.643Z,0.2
2023-02-24T12:01:04.801Z,0.22
2023-02-24T12:16:08.796Z,0.13
2023-02-24T12:30:56.459Z,0.11
2023-02-24T12:45:52.627Z,0.1
2023-02-24T13:00:48.366Z,0.09
2023-02-24T13:15:44.368Z,0.1
2023-02-24T13:30:39.766Z,0.1
2023-02-24T13:45:35.817Z,0.09
2023-02-24T14:00:31.791Z,0.1
2023-02-24T14:15:28.318Z,0.09
2023-02-24T14:30:23.899Z,0.06
2023-02-24T14:45:20.397Z,0.06
2023-02-24T15:00:16.449Z,0.07
2023-02-24T15:30:08.810Z,0.04
2023-02-24T15:45:05.435Z,0.03
2023-02-24T16:00:01.463Z,0.03
2023-02-24T16:14:57.371Z,0.02
2023-02-24T16:29:53.651Z,0.02
2023-02-24T16:44:49.814Z,0.04
2023-02-24T16:59:46.033Z,0.01
2023-02-24T17:14:42.171Z,0
2023-02-24T17:29:38.865Z,0.01
2023-02-24T17:44:35.295Z,0
2023-02-24T17:59:31.745Z,0
2023-02-24T18:14:27.838Z,0
2023-02-24T18:29:23.751Z,0
2023-02-24T18:44:19.842Z,0
2023-02-24T18:59:16.167Z,0
2023-02-24T19:14:12.399Z,0
2023-02-24T19:29:08.471Z,0
2023-02-24T19:59:01.007Z,0
2023-02-24T20:13:57.424Z,0
2023-02-24T20:28:54.141Z,0
2023-02-24T20:43:49.840Z,0
2023-02-24T20:58:45.746Z,0
2023-02-24T21:13:41.824Z,0
2023-02-24T21:28:38.652Z,0
2023-02-24T21:43:34.802Z,0
2023-02-24T21:58:31.032Z,0
2023-02-24T22:13:27.071Z,0
2023-02-24T22:28:22.774Z,0
2023-02-24T22:43:19.307Z,0
2023-02-24T22:58:15.130Z,0
2023-02-24T23:13:11.326Z,0
2023-02-24T23:28:07.182Z,0
2023-02-24T23:43:03.017Z,0
2023-02-24T23:57:59.465Z,0
